sensor_id;sensor_type;location;lat;lon;timestamp;P1;durP1;ratioP1;P2;durP2;ratioP2
22490;SDS011;11412;50.802;4.350;2022-12-07T00:01:12;17.58;;;10.93;;
22490;SDS011;11412;50.802;4.350;2022-12-07T00:03:41;15.48;;;11.05;;
22490;SDS011;11412;50.802;4.350;2022-12-07T00:06:09;16.02;;;10.73;;
22490;SDS011;11412;50.802;4.350;2022-12-07T00:08:36;16.27;;;11.77;;
22490;SDS011;11412;50.802;4.350;2022-12-07T00:11:03;13.15;;;10.73;;
22490;SDS011;11412;50.802;4.350;2022-12-07T00:13:50;14.63;;;11.32;;
22490;SDS011;11412;50.802;4.350;2022-12-07T00:16:22;16.05;;;12.18;;
22490;SDS011;11412;50.802;4.350;2022-12-07T00:18:49;15.20;;;11.25;;
22490;SDS011;11412;50.802;4.350;2022-12-07T00:21:16;15.63;;;11.55;;
22490;SDS011;11412;50.802;4.350;2022-12-07T00:23:46;16.33;;;11.60;;
22490;SDS011;11412;50.802;4.350;2022-12-07T00:26:14;13.73;;;11.90;;
22490;SDS011;11412;50.802;4.350;2022-12-07T00:28:47;15.98;;;11.43;;
22490;SDS011;11412;50.802;4.350;2022-12-07T00:33:45;15.52;;;12.60;;
22490;SDS011;11412;50.802;4.350;2022-12-07T00:36:12;21.05;;;11.82;;
22490;SDS011;11412;50.802;4.350;2022-12-07T00:38:40;15.68;;;11.60;;
22490;SDS011;11412;50.802;4.350;2022-12-07T00:41:07;15.23;;;11.70;;
22490;SDS011;11412;50.802;4.350;2022-12-07T00:43:36;18.60;;;11.40;;
22490;SDS011;11412;50.802;4.350;2022-12-07T00:46:02;15.27;;;11.57;;
22490;SDS011;11412;50.802;4.350;2022-12-07T00:48:28;17.98;;;12.40;;
22490;SDS011;11412;50.802;4.350;2022-12-07T00:50:53;18.92;;;11.93;;
22490;SDS011;11412;50.802;4.350;2022-12-07T00:53:19;14.73;;;10.93;;
22490;SDS011;11412;50.802;4.350;2022-12-07T00:55:45;17.85;;;11.15;;
22490;SDS011;11412;50.802;4.350;2022-12-07T00:58:11;18.13;;;11.88;;
22490;SDS011;11412;50.802;4.350;2022-12-07T01:00:37;13.38;;;10.77;;
22490;SDS011;11412;50.802;4.350;2022-12-07T01:03:08;13.40;;;11.18;;
22490;SDS011;11412;50.802;4.350;2022-12-07T01:05:35;14.32;;;11.70;;
22490;SDS011;11412;50.802;4.350;2022-12-07T01:08:01;18.65;;;12.30;;
22490;SDS011;11412;50.802;4.350;2022-12-07T01:10:26;19.38;;;12.05;;
22490;SDS011;11412;50.802;4.350;2022-12-07T01:12:53;17.02;;;11.80;;
22490;SDS011;11412;50.802;4.350;2022-12-07T01:15:19;18.13;;;12.10;;
22490;SDS011;11412;50.802;4.350;2022-12-07T01:17:44;15.75;;;11.60;;
22490;SDS011;11412;50.802;4.350;2022-12-07T01:20:10;16.15;;;11.20;;
22490;SDS011;11412;50.802;4.350;2022-12-07T01:22:37;17.45;;;11.77;;
22490;SDS011;11412;50.802;4.350;2022-12-07T01:25:04;18.88;;;11.73;;
22490;SDS011;11412;50.802;4.350;2022-12-07T01:27:32;14.43;;;10.90;;
22490;SDS011;11412;50.802;4.350;2022-12-07T01:29:58;17.02;;;10.73;;
22490;SDS011;11412;50.802;4.350;2022-12-07T01:32:24;16.75;;;11.90;;
22490;SDS011;11412;50.802;4.350;2022-12-07T01:34:49;15.45;;;11.57;;
22490;SDS011;11412;50.802;4.350;2022-12-07T01:37:15;18.35;;;11.43;;
22490;SDS011;11412;50.802;4.350;2022-12-07T01:39:41;14.98;;;11.23;;
22490;SDS011;11412;50.802;4.350;2022-12-07T01:42:10;17.30;;;11.07;;
22490;SDS011;11412;50.802;4.350;2022-12-07T01:47:39;14.80;;;11.38;;
22490;SDS011;11412;50.802;4.350;2022-12-07T01:50:05;15.25;;;10.45;;
22490;SDS011;11412;50.802;4.350;2022-12-07T01:52:31;18.10;;;10.65;;
22490;SDS011;11412;50.802;4.350;2022-12-07T01:55:00;14.43;;;11.57;;
22490;SDS011;11412;50.802;4.350;2022-12-07T01:57:30;13.27;;;10.68;;
22490;SDS011;11412;50.802;4.350;2022-12-07T01:59:58;16.00;;;11.02;;
22490;SDS011;11412;50.802;4.350;2022-12-07T02:02:26;16.27;;;11.15;;
22490;SDS011;11412;50.802;4.350;2022-12-07T02:04:56;14.15;;;11.10;;
22490;SDS011;11412;50.802;4.350;2022-12-07T02:07:24;15.63;;;10.70;;
22490;SDS011;11412;50.802;4.350;2022-12-07T02:09:50;14.95;;;11.50;;
22490;SDS011;11412;50.802;4.350;2022-12-07T02:12:16;15.75;;;11.43;;
22490;SDS011;11412;50.802;4.350;2022-12-07T02:14:42;15.68;;;11.88;;
22490;SDS011;11412;50.802;4.350;2022-12-07T02:31:30;15.30;;;11.48;;
22490;SDS011;11412;50.802;4.350;2022-12-07T02:36:55;18.35;;;11.35;;
22490;SDS011;11412;50.802;4.350;2022-12-07T02:39:42;13.82;;;11.07;;
22490;SDS011;11412;50.802;4.350;2022-12-07T02:42:15;15.57;;;11.32;;
22490;SDS011;11412;50.802;4.350;2022-12-07T02:44:44;16.85;;;11.00;;
22490;SDS011;11412;50.802;4.350;2022-12-07T02:47:11;16.30;;;10.85;;
22490;SDS011;11412;50.802;4.350;2022-12-07T02:49:40;13.73;;;10.25;;
22490;SDS011;11412;50.802;4.350;2022-12-07T02:52:06;15.80;;;10.98;;
22490;SDS011;11412;50.802;4.350;2022-12-07T02:54:32;17.58;;;11.15;;
22490;SDS011;11412;50.802;4.350;2022-12-07T03:07:47;14.32;;;10.32;;
22490;SDS011;11412;50.802;4.350;2022-12-07T03:16:02;12.18;;;9.77;;
22490;SDS011;11412;50.802;4.350;2022-12-07T03:18:35;13.43;;;9.05;;
22490;SDS011;11412;50.802;4.350;2022-12-07T03:21:06;12.55;;;9.50;;
22490;SDS011;11412;50.802;4.350;2022-12-07T03:23:37;13.07;;;9.75;;
22490;SDS011;11412;50.802;4.350;2022-12-07T03:26:05;13.73;;;9.10;;
22490;SDS011;11412;50.802;4.350;2022-12-07T03:28:36;13.80;;;8.60;;
22490;SDS011;11412;50.802;4.350;2022-12-07T03:31:12;10.70;;;8.50;;
22490;SDS011;11412;50.802;4.350;2022-12-07T03:33:49;10.90;;;8.38;;
22490;SDS011;11412;50.802;4.350;2022-12-07T03:36:30;10.93;;;7.63;;
22490;SDS011;11412;50.802;4.350;2022-12-07T03:39:03;12.43;;;9.45;;
22490;SDS011;11412;50.802;4.350;2022-12-07T03:41:52;9.75;;;8.75;;
22490;SDS011;11412;50.802;4.350;2022-12-07T03:44:19;15.52;;;9.55;;
22490;SDS011;11412;50.802;4.350;2022-12-07T03:49:49;12.52;;;9.65;;
22490;SDS011;11412;50.802;4.350;2022-12-07T03:57:50;12.68;;;9.40;;
22490;SDS011;11412;50.802;4.350;2022-12-07T04:00:18;11.70;;;9.38;;
22490;SDS011;11412;50.802;4.350;2022-12-07T04:02:44;11.90;;;9.38;;
22490;SDS011;11412;50.802;4.350;2022-12-07T04:05:10;12.00;;;9.07;;
22490;SDS011;11412;50.802;4.350;2022-12-07T04:07:36;9.75;;;8.38;;
22490;SDS011;11412;50.802;4.350;2022-12-07T04:10:01;13.10;;;9.32;;
22490;SDS011;11412;50.802;4.350;2022-12-07T04:12:28;12.73;;;8.68;;
22490;SDS011;11412;50.802;4.350;2022-12-07T04:14:53;10.85;;;8.07;;
22490;SDS011;11412;50.802;4.350;2022-12-07T04:17:19;10.82;;;8.38;;
22490;SDS011;11412;50.802;4.350;2022-12-07T04:19:44;10.95;;;8.10;;
22490;SDS011;11412;50.802;4.350;2022-12-07T04:22:10;11.43;;;8.27;;
22490;SDS011;11412;50.802;4.350;2022-12-07T04:24:36;12.40;;;8.93;;
22490;SDS011;11412;50.802;4.350;2022-12-07T04:27:02;10.43;;;9.32;;
22490;SDS011;11412;50.802;4.350;2022-12-07T04:29:27;10.75;;;8.43;;
22490;SDS011;11412;50.802;4.350;2022-12-07T04:31:53;10.45;;;7.70;;
22490;SDS011;11412;50.802;4.350;2022-12-07T04:34:19;13.05;;;8.68;;
22490;SDS011;11412;50.802;4.350;2022-12-07T04:36:45;14.30;;;8.88;;
22490;SDS011;11412;50.802;4.350;2022-12-07T04:39:16;9.32;;;8.35;;
22490;SDS011;11412;50.802;4.350;2022-12-07T04:41:47;9.93;;;8.80;;
22490;SDS011;11412;50.802;4.350;2022-12-07T04:44:13;12.10;;;9.68;;
22490;SDS011;11412;50.802;4.350;2022-12-07T04:46:39;12.88;;;9.48;;
22490;SDS011;11412;50.802;4.350;2022-12-07T04:49:06;11.23;;;9.50;;
22490;SDS011;11412;50.802;4.350;2022-12-07T04:51:31;11.00;;;9.15;;
22490;SDS011;11412;50.802;4.350;2022-12-07T04:53:57;12.30;;;9.63;;
22490;SDS011;11412;50.802;4.350;2022-12-07T04:56:24;11.80;;;9.32;;
22490;SDS011;11412;50.802;4.350;2022-12-07T04:58:51;11.20;;;9.23;;
22490;SDS011;11412;50.802;4.350;2022-12-07T05:01:18;10.93;;;9.77;;
22490;SDS011;11412;50.802;4.350;2022-12-07T05:03:44;11.25;;;9.85;;
22490;SDS011;11412;50.802;4.350;2022-12-07T05:06:10;12.70;;;10.07;;
22490;SDS011;11412;50.802;4.350;2022-12-07T05:08:37;12.77;;;10.23;;
22490;SDS011;11412;50.802;4.350;2022-12-07T05:11:03;13.63;;;10.50;;
22490;SDS011;11412;50.802;4.350;2022-12-07T05:13:30;18.98;;;10.55;;
22490;SDS011;11412;50.802;4.350;2022-12-07T05:15:57;12.73;;;9.38;;
22490;SDS011;11412;50.802;4.350;2022-12-07T05:18:23;10.45;;;9.32;;
22490;SDS011;11412;50.802;4.350;2022-12-07T05:20:49;12.85;;;9.57;;
22490;SDS011;11412;50.802;4.350;2022-12-07T05:23:16;11.70;;;9.55;;
22490;SDS011;11412;50.802;4.350;2022-12-07T05:25:42;11.75;;;9.02;;
22490;SDS011;11412;50.802;4.350;2022-12-07T05:28:07;14.20;;;9.07;;
22490;SDS011;11412;50.802;4.350;2022-12-07T05:30:33;10.80;;;8.93;;
22490;SDS011;11412;50.802;4.350;2022-12-07T05:32:59;12.52;;;9.23;;
22490;SDS011;11412;50.802;4.350;2022-12-07T05:35:24;10.10;;;8.63;;
22490;SDS011;11412;50.802;4.350;2022-12-07T05:37:50;10.75;;;9.30;;
22490;SDS011;11412;50.802;4.350;2022-12-07T05:40:16;11.77;;;9.30;;
22490;SDS011;11412;50.802;4.350;2022-12-07T05:42:42;12.15;;;9.00;;
22490;SDS011;11412;50.802;4.350;2022-12-07T05:45:08;11.77;;;9.30;;
22490;SDS011;11412;50.802;4.350;2022-12-07T05:47:34;13.35;;;10.10;;
22490;SDS011;11412;50.802;4.350;2022-12-07T05:50:00;12.70;;;9.52;;
22490;SDS011;11412;50.802;4.350;2022-12-07T05:52:26;13.55;;;10.55;;
22490;SDS011;11412;50.802;4.350;2022-12-07T05:54:52;11.40;;;9.90;;
22490;SDS011;11412;50.802;4.350;2022-12-07T05:57:18;14.70;;;10.02;;
22490;SDS011;11412;50.802;4.350;2022-12-07T05:59:43;14.88;;;10.70;;
22490;SDS011;11412;50.802;4.350;2022-12-07T06:02:10;14.13;;;10.55;;
22490;SDS011;11412;50.802;4.350;2022-12-07T06:04:42;13.43;;;10.05;;
22490;SDS011;11412;50.802;4.350;2022-12-07T06:07:10;12.93;;;9.63;;
22490;SDS011;11412;50.802;4.350;2022-12-07T06:09:38;16.45;;;10.00;;
22490;SDS011;11412;50.802;4.350;2022-12-07T06:12:03;15.25;;;10.02;;
22490;SDS011;11412;50.802;4.350;2022-12-07T06:14:48;17.00;;;10.40;;
22490;SDS011;11412;50.802;4.350;2022-12-07T06:17:14;13.77;;;10.02;;
22490;SDS011;11412;50.802;4.350;2022-12-07T06:19:40;12.07;;;9.90;;
22490;SDS011;11412;50.802;4.350;2022-12-07T06:22:06;14.20;;;10.52;;
22490;SDS011;11412;50.802;4.350;2022-12-07T06:24:34;12.27;;;9.38;;
22490;SDS011;11412;50.802;4.350;2022-12-07T06:26:59;12.10;;;9.75;;
22490;SDS011;11412;50.802;4.350;2022-12-07T06:29:25;12.40;;;9.63;;
22490;SDS011;11412;50.802;4.350;2022-12-07T06:31:51;12.77;;;9.43;;
22490;SDS011;11412;50.802;4.350;2022-12-07T06:34:18;10.43;;;9.32;;
22490;SDS011;11412;50.802;4.350;2022-12-07T06:36:45;15.38;;;9.50;;
22490;SDS011;11412;50.802;4.350;2022-12-07T06:39:16;12.15;;;9.48;;
22490;SDS011;11412;50.802;4.350;2022-12-07T06:41:42;10.25;;;9.18;;
22490;SDS011;11412;50.802;4.350;2022-12-07T06:44:08;10.45;;;8.60;;
22490;SDS011;11412;50.802;4.350;2022-12-07T06:46:33;12.73;;;9.35;;
22490;SDS011;11412;50.802;4.350;2022-12-07T06:49:00;16.70;;;8.90;;
22490;SDS011;11412;50.802;4.350;2022-12-07T06:51:26;12.25;;;9.30;;
22490;SDS011;11412;50.802;4.350;2022-12-07T06:53:52;15.77;;;9.32;;
22490;SDS011;11412;50.802;4.350;2022-12-07T06:56:17;9.75;;;8.75;;
22490;SDS011;11412;50.802;4.350;2022-12-07T06:58:44;10.20;;;9.10;;
22490;SDS011;11412;50.802;4.350;2022-12-07T07:01:10;12.38;;;9.93;;
22490;SDS011;11412;50.802;4.350;2022-12-07T07:03:37;11.07;;;9.20;;
22490;SDS011;11412;50.802;4.350;2022-12-07T07:06:03;12.80;;;9.27;;
22490;SDS011;11412;50.802;4.350;2022-12-07T07:08:29;11.90;;;9.15;;
22490;SDS011;11412;50.802;4.350;2022-12-07T07:10:54;12.23;;;8.82;;
22490;SDS011;11412;50.802;4.350;2022-12-07T07:13:20;12.45;;;8.55;;
22490;SDS011;11412;50.802;4.350;2022-12-07T07:15:45;11.32;;;8.18;;
22490;SDS011;11412;50.802;4.350;2022-12-07T07:18:11;11.10;;;8.60;;
22490;SDS011;11412;50.802;4.350;2022-12-07T07:20:37;11.40;;;8.25;;
22490;SDS011;11412;50.802;4.350;2022-12-07T07:23:03;10.60;;;8.13;;
22490;SDS011;11412;50.802;4.350;2022-12-07T07:25:29;12.10;;;8.43;;
22490;SDS011;11412;50.802;4.350;2022-12-07T07:27:54;10.10;;;8.27;;
22490;SDS011;11412;50.802;4.350;2022-12-07T07:30:20;13.88;;;8.57;;
22490;SDS011;11412;50.802;4.350;2022-12-07T07:32:46;12.63;;;9.30;;
22490;SDS011;11412;50.802;4.350;2022-12-07T07:35:11;17.75;;;9.88;;
22490;SDS011;11412;50.802;4.350;2022-12-07T07:37:39;11.75;;;9.18;;
22490;SDS011;11412;50.802;4.350;2022-12-07T07:40:05;15.40;;;9.30;;
22490;SDS011;11412;50.802;4.350;2022-12-07T07:42:31;9.88;;;8.70;;
22490;SDS011;11412;50.802;4.350;2022-12-07T07:44:57;14.75;;;8.88;;
22490;SDS011;11412;50.802;4.350;2022-12-07T07:47:23;9.43;;;8.43;;
22490;SDS011;11412;50.802;4.350;2022-12-07T07:49:48;10.43;;;8.52;;
22490;SDS011;11412;50.802;4.350;2022-12-07T07:52:14;12.50;;;8.85;;
22490;SDS011;11412;50.802;4.350;2022-12-07T07:54:40;11.63;;;8.98;;
22490;SDS011;11412;50.802;4.350;2022-12-07T07:57:05;14.80;;;9.32;;
22490;SDS011;11412;50.802;4.350;2022-12-07T07:59:31;11.63;;;9.15;;
22490;SDS011;11412;50.802;4.350;2022-12-07T08:01:57;20.08;;;11.38;;
22490;SDS011;11412;50.802;4.350;2022-12-07T08:04:22;15.30;;;10.68;;
22490;SDS011;11412;50.802;4.350;2022-12-07T08:06:48;13.25;;;10.35;;
22490;SDS011;11412;50.802;4.350;2022-12-07T08:09:14;17.30;;;10.40;;
22490;SDS011;11412;50.802;4.350;2022-12-07T08:11:39;12.23;;;9.73;;
22490;SDS011;11412;50.802;4.350;2022-12-07T08:14:05;19.90;;;10.50;;
22490;SDS011;11412;50.802;4.350;2022-12-07T08:16:31;13.02;;;9.68;;
22490;SDS011;11412;50.802;4.350;2022-12-07T08:18:56;12.90;;;8.93;;
22490;SDS011;11412;50.802;4.350;2022-12-07T08:21:22;12.25;;;8.95;;
22490;SDS011;11412;50.802;4.350;2022-12-07T08:23:47;14.70;;;9.45;;
22490;SDS011;11412;50.802;4.350;2022-12-07T08:26:14;15.63;;;10.15;;
22490;SDS011;11412;50.802;4.350;2022-12-07T08:28:41;12.32;;;8.93;;
22490;SDS011;11412;50.802;4.350;2022-12-07T08:31:13;16.33;;;9.48;;
22490;SDS011;11412;50.802;4.350;2022-12-07T08:33:41;15.43;;;9.10;;
22490;SDS011;11412;50.802;4.350;2022-12-07T08:36:08;12.93;;;8.93;;
22490;SDS011;11412;50.802;4.350;2022-12-07T08:38:35;11.63;;;9.25;;
22490;SDS011;11412;50.802;4.350;2022-12-07T08:41:02;11.52;;;8.82;;
22490;SDS011;11412;50.802;4.350;2022-12-07T08:43:28;18.08;;;9.23;;
22490;SDS011;11412;50.802;4.350;2022-12-07T08:48:32;13.68;;;9.70;;
22490;SDS011;11412;50.802;4.350;2022-12-07T08:51:01;12.18;;;9.68;;
22490;SDS011;11412;50.802;4.350;2022-12-07T08:53:28;15.75;;;9.95;;
22490;SDS011;11412;50.802;4.350;2022-12-07T08:55:54;16.50;;;10.48;;
22490;SDS011;11412;50.802;4.350;2022-12-07T08:58:21;14.82;;;9.48;;
22490;SDS011;11412;50.802;4.350;2022-12-07T09:00:47;15.25;;;9.95;;
22490;SDS011;11412;50.802;4.350;2022-12-07T09:03:12;17.30;;;10.75;;
22490;SDS011;11412;50.802;4.350;2022-12-07T09:05:38;10.70;;;9.05;;
22490;SDS011;11412;50.802;4.350;2022-12-07T09:08:04;11.02;;;9.50;;
22490;SDS011;11412;50.802;4.350;2022-12-07T09:10:30;17.55;;;8.88;;
22490;SDS011;11412;50.802;4.350;2022-12-07T09:12:56;13.75;;;8.50;;
22490;SDS011;11412;50.802;4.350;2022-12-07T09:15:26;13.27;;;8.48;;
22490;SDS011;11412;50.802;4.350;2022-12-07T09:17:53;11.73;;;7.68;;
22490;SDS011;11412;50.802;4.350;2022-12-07T09:20:19;13.50;;;8.43;;
22490;SDS011;11412;50.802;4.350;2022-12-07T09:22:44;12.20;;;8.30;;
22490;SDS011;11412;50.802;4.350;2022-12-07T09:25:10;12.63;;;8.23;;
22490;SDS011;11412;50.802;4.350;2022-12-07T09:27:36;9.80;;;7.43;;
22490;SDS011;11412;50.802;4.350;2022-12-07T09:30:02;10.50;;;7.45;;
22490;SDS011;11412;50.802;4.350;2022-12-07T09:32:29;9.13;;;7.28;;
22490;SDS011;11412;50.802;4.350;2022-12-07T09:34:54;9.60;;;6.95;;
22490;SDS011;11412;50.802;4.350;2022-12-07T09:37:20;13.85;;;7.40;;
22490;SDS011;11412;50.802;4.350;2022-12-07T09:39:46;10.85;;;5.90;;
22490;SDS011;11412;50.802;4.350;2022-12-07T09:42:29;12.45;;;6.57;;
22490;SDS011;11412;50.802;4.350;2022-12-07T09:45:00;13.68;;;7.95;;
22490;SDS011;11412;50.802;4.350;2022-12-07T09:47:27;8.32;;;6.93;;
22490;SDS011;11412;50.802;4.350;2022-12-07T09:49:55;8.20;;;6.15;;
22490;SDS011;11412;50.802;4.350;2022-12-07T09:52:44;11.43;;;6.78;;
22490;SDS011;11412;50.802;4.350;2022-12-07T09:55:13;12.90;;;6.65;;
22490;SDS011;11412;50.802;4.350;2022-12-07T09:57:40;10.05;;;6.40;;
22490;SDS011;11412;50.802;4.350;2022-12-07T10:00:18;12.80;;;6.55;;
22490;SDS011;11412;50.802;4.350;2022-12-07T10:02:51;19.60;;;8.82;;
22490;SDS011;11412;50.802;4.350;2022-12-07T10:08:07;13.57;;;7.65;;
22490;SDS011;11412;50.802;4.350;2022-12-07T10:10:35;14.07;;;7.32;;
22490;SDS011;11412;50.802;4.350;2022-12-07T10:13:10;14.27;;;6.90;;
22490;SDS011;11412;50.802;4.350;2022-12-07T10:15:48;10.55;;;7.07;;
22490;SDS011;11412;50.802;4.350;2022-12-07T10:20:47;16.65;;;7.38;;
22490;SDS011;11412;50.802;4.350;2022-12-07T10:23:14;11.88;;;6.28;;
22490;SDS011;11412;50.802;4.350;2022-12-07T10:25:41;12.35;;;6.88;;
22490;SDS011;11412;50.802;4.350;2022-12-07T10:30:33;13.35;;;6.90;;
22490;SDS011;11412;50.802;4.350;2022-12-07T10:36:18;11.93;;;6.57;;
22490;SDS011;11412;50.802;4.350;2022-12-07T10:39:00;10.45;;;6.40;;
22490;SDS011;11412;50.802;4.350;2022-12-07T10:41:55;11.02;;;7.05;;
22490;SDS011;11412;50.802;4.350;2022-12-07T10:44:30;9.90;;;7.05;;
22490;SDS011;11412;50.802;4.350;2022-12-07T10:52:26;14.43;;;7.13;;
22490;SDS011;11412;50.802;4.350;2022-12-07T10:57:48;8.45;;;6.18;;
22490;SDS011;11412;50.802;4.350;2022-12-07T11:00:25;9.70;;;5.75;;
22490;SDS011;11412;50.802;4.350;2022-12-07T11:03:20;9.70;;;5.80;;
22490;SDS011;11412;50.802;4.350;2022-12-07T11:06:25;10.93;;;5.47;;
22490;SDS011;11412;50.802;4.350;2022-12-07T11:09:00;11.15;;;5.50;;
22490;SDS011;11412;50.802;4.350;2022-12-07T11:11:46;12.32;;;5.22;;
22490;SDS011;11412;50.802;4.350;2022-12-07T11:14:25;9.90;;;5.85;;
22490;SDS011;11412;50.802;4.350;2022-12-07T11:17:06;9.07;;;4.72;;
22490;SDS011;11412;50.802;4.350;2022-12-07T11:20:06;6.38;;;5.20;;
22490;SDS011;11412;50.802;4.350;2022-12-07T11:25:29;11.13;;;5.43;;
22490;SDS011;11412;50.802;4.350;2022-12-07T11:28:03;9.98;;;4.97;;
22490;SDS011;11412;50.802;4.350;2022-12-07T11:33:32;7.13;;;4.30;;
22490;SDS011;11412;50.802;4.350;2022-12-07T11:38:57;8.00;;;4.55;;
22490;SDS011;11412;50.802;4.350;2022-12-07T11:41:37;12.30;;;5.18;;
22490;SDS011;11412;50.802;4.350;2022-12-07T11:46:55;6.72;;;4.10;;
22490;SDS011;11412;50.802;4.350;2022-12-07T11:49:47;8.60;;;3.70;;
22490;SDS011;11412;50.802;4.350;2022-12-07T11:58:51;8.48;;;3.88;;
22490;SDS011;11412;50.802;4.350;2022-12-07T12:03:50;3.60;;;2.70;;
22490;SDS011;11412;50.802;4.350;2022-12-07T12:06:29;7.15;;;2.83;;
22490;SDS011;11412;50.802;4.350;2022-12-07T12:08:56;5.85;;;2.42;;
22490;SDS011;11412;50.802;4.350;2022-12-07T12:14:29;8.40;;;2.88;;
22490;SDS011;11412;50.802;4.350;2022-12-07T12:20:04;3.95;;;2.35;;
22490;SDS011;11412;50.802;4.350;2022-12-07T12:22:44;7.05;;;2.90;;
22490;SDS011;11412;50.802;4.350;2022-12-07T12:25:20;3.45;;;2.38;;
22490;SDS011;11412;50.802;4.350;2022-12-07T12:27:48;3.30;;;1.92;;
22490;SDS011;11412;50.802;4.350;2022-12-07T12:33:26;4.72;;;1.83;;
22490;SDS011;11412;50.802;4.350;2022-12-07T12:38:50;2.97;;;1.60;;
22490;SDS011;11412;50.802;4.350;2022-12-07T12:46:58;3.05;;;1.10;;
22490;SDS011;11412;50.802;4.350;2022-12-07T12:51:57;4.30;;;1.48;;
22490;SDS011;11412;50.802;4.350;2022-12-07T12:57:09;1.65;;;1.20;;
22490;SDS011;11412;50.802;4.350;2022-12-07T13:02:25;4.47;;;2.20;;
22490;SDS011;11412;50.802;4.350;2022-12-07T13:04:59;4.72;;;1.25;;
22490;SDS011;11412;50.802;4.350;2022-12-07T13:12:56;8.82;;;1.98;;
22490;SDS011;11412;50.802;4.350;2022-12-07T13:15:54;3.70;;;1.75;;
22490;SDS011;11412;50.802;4.350;2022-12-07T13:18:40;3.40;;;1.65;;
22490;SDS011;11412;50.802;4.350;2022-12-07T13:31:38;8.48;;;1.70;;
22490;SDS011;11412;50.802;4.350;2022-12-07T13:34:05;4.35;;;2.22;;
22490;SDS011;11412;50.802;4.350;2022-12-07T13:36:56;3.65;;;1.95;;
22490;SDS011;11412;50.802;4.350;2022-12-07T13:39:24;7.03;;;2.78;;
22490;SDS011;11412;50.802;4.350;2022-12-07T13:41:52;6.07;;;2.95;;
22490;SDS011;11412;50.802;4.350;2022-12-07T13:44:22;7.53;;;3.88;;
22490;SDS011;11412;50.802;4.350;2022-12-07T13:49:50;4.50;;;2.67;;
22490;SDS011;11412;50.802;4.350;2022-12-07T13:52:18;7.60;;;3.35;;
22490;SDS011;11412;50.802;4.350;2022-12-07T13:57:29;5.80;;;2.60;;
22490;SDS011;11412;50.802;4.350;2022-12-07T13:59:57;6.22;;;2.85;;
22490;SDS011;11412;50.802;4.350;2022-12-07T14:02:33;4.15;;;2.08;;
22490;SDS011;11412;50.802;4.350;2022-12-07T14:05:33;3.40;;;1.73;;
22490;SDS011;11412;50.802;4.350;2022-12-07T14:10:38;5.38;;;2.13;;
22490;SDS011;11412;50.802;4.350;2022-12-07T14:16:22;3.50;;;2.42;;
22490;SDS011;11412;50.802;4.350;2022-12-07T14:18:49;4.32;;;2.45;;
22490;SDS011;11412;50.802;4.350;2022-12-07T14:21:16;3.03;;;2.58;;
22490;SDS011;11412;50.802;4.350;2022-12-07T14:23:44;5.82;;;2.80;;
22490;SDS011;11412;50.802;4.350;2022-12-07T14:26:14;5.88;;;2.42;;
22490;SDS011;11412;50.802;4.350;2022-12-07T14:28:43;5.93;;;1.63;;
22490;SDS011;11412;50.802;4.350;2022-12-07T14:31:16;4.00;;;2.10;;
22490;SDS011;11412;50.802;4.350;2022-12-07T14:33:43;7.07;;;2.33;;
22490;SDS011;11412;50.802;4.350;2022-12-07T14:36:09;2.53;;;2.33;;
22490;SDS011;11412;50.802;4.350;2022-12-07T14:38:39;6.75;;;2.70;;
22490;SDS011;11412;50.802;4.350;2022-12-07T14:41:06;4.35;;;2.28;;
22490;SDS011;11412;50.802;4.350;2022-12-07T14:43:56;7.13;;;2.63;;
22490;SDS011;11412;50.802;4.350;2022-12-07T14:46:22;3.53;;;2.30;;
22490;SDS011;11412;50.802;4.350;2022-12-07T14:48:48;4.20;;;1.75;;
22490;SDS011;11412;50.802;4.350;2022-12-07T14:51:13;1.42;;;1.30;;
22490;SDS011;11412;50.802;4.350;2022-12-07T14:53:44;2.35;;;1.00;;
22490;SDS011;11412;50.802;4.350;2022-12-07T14:56:13;3.75;;;1.25;;
22490;SDS011;11412;50.802;4.350;2022-12-07T14:58:39;6.07;;;1.45;;
22490;SDS011;11412;50.802;4.350;2022-12-07T15:01:05;4.80;;;1.40;;
22490;SDS011;11412;50.802;4.350;2022-12-07T15:03:31;1.42;;;0.80;;
22490;SDS011;11412;50.802;4.350;2022-12-07T15:05:57;3.30;;;1.17;;
22490;SDS011;11412;50.802;4.350;2022-12-07T15:08:22;1.05;;;0.73;;
22490;SDS011;11412;50.802;4.350;2022-12-07T15:10:48;2.85;;;1.02;;
22490;SDS011;11412;50.802;4.350;2022-12-07T15:13:13;5.43;;;1.25;;
22490;SDS011;11412;50.802;4.350;2022-12-07T15:15:58;2.50;;;1.30;;
22490;SDS011;11412;50.802;4.350;2022-12-07T15:18:24;2.13;;;1.30;;
22490;SDS011;11412;50.802;4.350;2022-12-07T15:20:50;3.72;;;1.20;;
22490;SDS011;11412;50.802;4.350;2022-12-07T15:23:16;3.38;;;1.50;;
22490;SDS011;11412;50.802;4.350;2022-12-07T15:25:45;5.82;;;1.95;;
22490;SDS011;11412;50.802;4.350;2022-12-07T15:28:12;2.30;;;1.55;;
22490;SDS011;11412;50.802;4.350;2022-12-07T15:30:39;2.72;;;1.90;;
22490;SDS011;11412;50.802;4.350;2022-12-07T15:33:07;2.42;;;1.58;;
22490;SDS011;11412;50.802;4.350;2022-12-07T15:35:33;2.40;;;2.20;;
22490;SDS011;11412;50.802;4.350;2022-12-07T15:37:58;3.45;;;2.30;;
22490;SDS011;11412;50.802;4.350;2022-12-07T15:40:24;2.67;;;2.15;;
22490;SDS011;11412;50.802;4.350;2022-12-07T15:42:50;3.90;;;2.60;;
22490;SDS011;11412;50.802;4.350;2022-12-07T15:45:15;2.75;;;2.55;;
22490;SDS011;11412;50.802;4.350;2022-12-07T15:47:42;4.38;;;2.80;;
22490;SDS011;11412;50.802;4.350;2022-12-07T15:50:11;2.95;;;2.67;;
22490;SDS011;11412;50.802;4.350;2022-12-07T15:52:39;5.32;;;2.75;;
22490;SDS011;11412;50.802;4.350;2022-12-07T15:55:05;4.03;;;2.90;;
22490;SDS011;11412;50.802;4.350;2022-12-07T15:57:32;8.27;;;3.65;;
22490;SDS011;11412;50.802;4.350;2022-12-07T15:59:58;8.15;;;2.85;;
22490;SDS011;11412;50.802;4.350;2022-12-07T16:02:24;5.28;;;3.00;;
22490;SDS011;11412;50.802;4.350;2022-12-07T16:04:50;7.70;;;4.00;;
22490;SDS011;11412;50.802;4.350;2022-12-07T16:07:17;5.13;;;3.25;;
22490;SDS011;11412;50.802;4.350;2022-12-07T16:09:43;9.60;;;3.92;;
22490;SDS011;11412;50.802;4.350;2022-12-07T16:12:10;8.80;;;4.65;;
22490;SDS011;11412;50.802;4.350;2022-12-07T16:14:39;5.07;;;3.42;;
22490;SDS011;11412;50.802;4.350;2022-12-07T16:17:05;8.48;;;3.90;;
22490;SDS011;11412;50.802;4.350;2022-12-07T16:19:31;5.47;;;3.55;;
22490;SDS011;11412;50.802;4.350;2022-12-07T16:21:57;5.25;;;4.20;;
22490;SDS011;11412;50.802;4.350;2022-12-07T16:24:23;4.63;;;3.65;;
22490;SDS011;11412;50.802;4.350;2022-12-07T16:26:50;8.40;;;4.28;;
22490;SDS011;11412;50.802;4.350;2022-12-07T16:29:16;4.18;;;3.78;;
22490;SDS011;11412;50.802;4.350;2022-12-07T16:31:43;11.13;;;4.18;;
22490;SDS011;11412;50.802;4.350;2022-12-07T16:34:09;7.43;;;4.43;;
22490;SDS011;11412;50.802;4.350;2022-12-07T16:36:34;5.57;;;4.50;;
22490;SDS011;11412;50.802;4.350;2022-12-07T16:39:00;7.18;;;5.18;;
22490;SDS011;11412;50.802;4.350;2022-12-07T16:41:27;6.63;;;4.68;;
22490;SDS011;11412;50.802;4.350;2022-12-07T16:43:52;9.55;;;5.45;;
22490;SDS011;11412;50.802;4.350;2022-12-07T16:46:18;10.07;;;4.57;;
22490;SDS011;11412;50.802;4.350;2022-12-07T16:48:43;6.00;;;4.57;;
22490;SDS011;11412;50.802;4.350;2022-12-07T16:51:10;5.25;;;4.50;;
22490;SDS011;11412;50.802;4.350;2022-12-07T16:53:38;7.10;;;4.43;;
22490;SDS011;11412;50.802;4.350;2022-12-07T16:56:09;7.25;;;4.53;;
22490;SDS011;11412;50.802;4.350;2022-12-07T16:58:40;5.15;;;4.38;;
22490;SDS011;11412;50.802;4.350;2022-12-07T17:01:14;5.15;;;4.60;;
22490;SDS011;11412;50.802;4.350;2022-12-07T17:03:42;7.68;;;5.00;;
22490;SDS011;11412;50.802;4.350;2022-12-07T17:06:15;7.95;;;5.03;;
22490;SDS011;11412;50.802;4.350;2022-12-07T17:08:42;5.32;;;3.90;;